sensor_id;sensor_type;location;lat;lon;timestamp;P1;durP1;ratioP1;P2;durP2;ratioP2
37715;SDS011;23562;50.540;12.504;2023-01-30T00:01:29;27.63;;;14.07;;
37715;SDS011;23562;50.540;12.504;2023-01-30T00:03:54;26.85;;;13.25;;
37715;SDS011;23562;50.540;12.504;2023-01-30T00:06:20;26.83;;;13.07;;
37715;SDS011;23562;50.540;12.504;2023-01-30T00:08:45;28.23;;;13.80;;
37715;SDS011;23562;50.540;12.504;2023-01-30T00:11:11;28.10;;;13.98;;
37715;SDS011;23562;50.540;12.504;2023-01-30T00:13:36;29.52;;;13.48;;
37715;SDS011;23562;50.540;12.504;2023-01-30T00:16:01;30.00;;;14.13;;
37715;SDS011;23562;50.540;12.504;2023-01-30T00:18:26;27.30;;;13.70;;
37715;SDS011;23562;50.540;12.504;2023-01-30T00:20:58;30.40;;;14.77;;
37715;SDS011;23562;50.540;12.504;2023-01-30T00:23:24;27.42;;;13.88;;
37715;SDS011;23562;50.540;12.504;2023-01-30T00:25:49;28.52;;;14.15;;
37715;SDS011;23562;50.540;12.504;2023-01-30T00:28:15;28.85;;;14.30;;
37715;SDS011;23562;50.540;12.504;2023-01-30T00:30:40;28.55;;;14.18;;
37715;SDS011;23562;50.540;12.504;2023-01-30T00:33:05;30.10;;;15.27;;
37715;SDS011;23562;50.540;12.504;2023-01-30T00:35:30;31.45;;;15.02;;
37715;SDS011;23562;50.540;12.504;2023-01-30T00:37:59;35.97;;;15.48;;
37715;SDS011;23562;50.540;12.504;2023-01-30T00:40:25;36.55;;;16.83;;
37715;SDS011;23562;50.540;12.504;2023-01-30T00:42:50;32.08;;;15.95;;
37715;SDS011;23562;50.540;12.504;2023-01-30T00:45:34;30.10;;;15.13;;
37715;SDS011;23562;50.540;12.504;2023-01-30T00:48:19;38.67;;;15.95;;
37715;SDS011;23562;50.540;12.504;2023-01-30T00:50:44;32.20;;;15.03;;
37715;SDS011;23562;50.540;12.504;2023-01-30T00:53:12;31.47;;;15.27;;
37715;SDS011;23562;50.540;12.504;2023-01-30T00:55:38;30.85;;;14.60;;
37715;SDS011;23562;50.540;12.504;2023-01-30T00:58:04;30.23;;;14.80;;
37715;SDS011;23562;50.540;12.504;2023-01-30T01:00:29;33.28;;;15.13;;
37715;SDS011;23562;50.540;12.504;2023-01-30T01:02:54;30.50;;;13.70;;
37715;SDS011;23562;50.540;12.504;2023-01-30T01:05:19;31.08;;;15.63;;
37715;SDS011;23562;50.540;12.504;2023-01-30T01:07:44;32.25;;;15.30;;
37715;SDS011;23562;50.540;12.504;2023-01-30T01:10:10;33.78;;;15.32;;
37715;SDS011;23562;50.540;12.504;2023-01-30T01:12:40;34.15;;;15.98;;
37715;SDS011;23562;50.540;12.504;2023-01-30T01:15:05;33.53;;;17.33;;
37715;SDS011;23562;50.540;12.504;2023-01-30T01:17:30;33.15;;;15.73;;
37715;SDS011;23562;50.540;12.504;2023-01-30T01:19:56;30.33;;;15.07;;
37715;SDS011;23562;50.540;12.504;2023-01-30T01:22:21;31.40;;;15.55;;
37715;SDS011;23562;50.540;12.504;2023-01-30T01:24:46;35.47;;;15.07;;
37715;SDS011;23562;50.540;12.504;2023-01-30T01:27:11;28.90;;;14.90;;
37715;SDS011;23562;50.540;12.504;2023-01-30T01:29:36;33.78;;;16.10;;
37715;SDS011;23562;50.540;12.504;2023-01-30T01:32:01;33.25;;;15.93;;
37715;SDS011;23562;50.540;12.504;2023-01-30T01:34:26;34.20;;;16.63;;
37715;SDS011;23562;50.540;12.504;2023-01-30T01:36:51;31.30;;;15.13;;
37715;SDS011;23562;50.540;12.504;2023-01-30T01:39:17;35.13;;;16.33;;
37715;SDS011;23562;50.540;12.504;2023-01-30T01:41:42;33.00;;;15.73;;
37715;SDS011;23562;50.540;12.504;2023-01-30T01:44:11;32.33;;;14.47;;
37715;SDS011;23562;50.540;12.504;2023-01-30T01:46:43;31.67;;;15.32;;
37715;SDS011;23562;50.540;12.504;2023-01-30T01:49:16;34.35;;;15.60;;
37715;SDS011;23562;50.540;12.504;2023-01-30T01:51:53;30.98;;;15.68;;
37715;SDS011;23562;50.540;12.504;2023-01-30T01:54:40;30.27;;;14.45;;
37715;SDS011;23562;50.540;12.504;2023-01-30T01:57:09;30.00;;;14.85;;
37715;SDS011;23562;50.540;12.504;2023-01-30T01:59:37;30.40;;;14.33;;
37715;SDS011;23562;50.540;12.504;2023-01-30T02:02:05;29.70;;;14.43;;
37715;SDS011;23562;50.540;12.504;2023-01-30T02:04:31;29.30;;;14.30;;
37715;SDS011;23562;50.540;12.504;2023-01-30T02:07:15;25.20;;;13.02;;
37715;SDS011;23562;50.540;12.504;2023-01-30T02:09:41;32.97;;;14.50;;
37715;SDS011;23562;50.540;12.504;2023-01-30T02:12:06;27.17;;;13.68;;
37715;SDS011;23562;50.540;12.504;2023-01-30T02:14:32;26.83;;;12.85;;
37715;SDS011;23562;50.540;12.504;2023-01-30T02:16:57;25.48;;;11.75;;
37715;SDS011;23562;50.540;12.504;2023-01-30T02:19:25;26.75;;;12.90;;
37715;SDS011;23562;50.540;12.504;2023-01-30T02:22:00;31.60;;;13.65;;
37715;SDS011;23562;50.540;12.504;2023-01-30T02:32:35;26.45;;;13.48;;
37715;SDS011;23562;50.540;12.504;2023-01-30T02:35:07;29.92;;;13.32;;
37715;SDS011;23562;50.540;12.504;2023-01-30T02:40:10;29.73;;;14.18;;
37715;SDS011;23562;50.540;12.504;2023-01-30T02:43:00;28.88;;;13.23;;
37715;SDS011;23562;50.540;12.504;2023-01-30T02:45:32;27.85;;;13.23;;
37715;SDS011;23562;50.540;12.504;2023-01-30T02:48:05;28.45;;;13.27;;
37715;SDS011;23562;50.540;12.504;2023-01-30T02:50:36;26.42;;;13.23;;
37715;SDS011;23562;50.540;12.504;2023-01-30T02:53:04;27.15;;;14.10;;
37715;SDS011;23562;50.540;12.504;2023-01-30T02:55:29;28.60;;;13.45;;
37715;SDS011;23562;50.540;12.504;2023-01-30T02:57:55;29.55;;;14.82;;
37715;SDS011;23562;50.540;12.504;2023-01-30T03:00:29;31.33;;;13.93;;
37715;SDS011;23562;50.540;12.504;2023-01-30T03:03:01;26.63;;;13.82;;
37715;SDS011;23562;50.540;12.504;2023-01-30T03:05:43;25.08;;;12.35;;
37715;SDS011;23562;50.540;12.504;2023-01-30T03:08:24;30.33;;;13.57;;
37715;SDS011;23562;50.540;12.504;2023-01-30T03:11:07;29.10;;;14.15;;
37715;SDS011;23562;50.540;12.504;2023-01-30T03:16:02;29.33;;;14.65;;
37715;SDS011;23562;50.540;12.504;2023-01-30T03:18:29;31.90;;;14.43;;
37715;SDS011;23562;50.540;12.504;2023-01-30T03:20:54;32.47;;;14.55;;
37715;SDS011;23562;50.540;12.504;2023-01-30T03:23:19;29.67;;;14.70;;
37715;SDS011;23562;50.540;12.504;2023-01-30T03:25:44;28.33;;;13.93;;
37715;SDS011;23562;50.540;12.504;2023-01-30T03:28:10;31.70;;;14.75;;
37715;SDS011;23562;50.540;12.504;2023-01-30T03:30:36;30.13;;;14.70;;
37715;SDS011;23562;50.540;12.504;2023-01-30T03:33:01;34.13;;;15.90;;
37715;SDS011;23562;50.540;12.504;2023-01-30T03:35:27;34.60;;;15.30;;
37715;SDS011;23562;50.540;12.504;2023-01-30T03:37:53;26.85;;;13.90;;
37715;SDS011;23562;50.540;12.504;2023-01-30T03:40:18;30.73;;;14.30;;
37715;SDS011;23562;50.540;12.504;2023-01-30T03:42:43;28.87;;;13.10;;
37715;SDS011;23562;50.540;12.504;2023-01-30T03:45:09;26.10;;;12.43;;
37715;SDS011;23562;50.540;12.504;2023-01-30T03:47:34;26.02;;;13.25;;
37715;SDS011;23562;50.540;12.504;2023-01-30T03:49:59;26.73;;;13.07;;
37715;SDS011;23562;50.540;12.504;2023-01-30T03:52:24;24.88;;;12.57;;
37715;SDS011;23562;50.540;12.504;2023-01-30T03:54:50;25.27;;;12.80;;
37715;SDS011;23562;50.540;12.504;2023-01-30T03:57:15;23.42;;;11.90;;
37715;SDS011;23562;50.540;12.504;2023-01-30T03:59:40;22.92;;;11.98;;
37715;SDS011;23562;50.540;12.504;2023-01-30T04:02:05;24.83;;;11.82;;
37715;SDS011;23562;50.540;12.504;2023-01-30T04:04:30;27.42;;;13.02;;
37715;SDS011;23562;50.540;12.504;2023-01-30T04:06:55;23.17;;;12.00;;
37715;SDS011;23562;50.540;12.504;2023-01-30T04:09:21;25.98;;;12.63;;
37715;SDS011;23562;50.540;12.504;2023-01-30T04:11:46;25.97;;;12.90;;
37715;SDS011;23562;50.540;12.504;2023-01-30T04:14:11;26.92;;;13.35;;
37715;SDS011;23562;50.540;12.504;2023-01-30T04:16:36;26.17;;;13.35;;
37715;SDS011;23562;50.540;12.504;2023-01-30T04:19:01;25.80;;;13.98;;
37715;SDS011;23562;50.540;12.504;2023-01-30T04:21:26;27.30;;;14.40;;
37715;SDS011;23562;50.540;12.504;2023-01-30T04:23:52;30.15;;;15.10;;
37715;SDS011;23562;50.540;12.504;2023-01-30T04:26:17;30.00;;;14.60;;
37715;SDS011;23562;50.540;12.504;2023-01-30T04:28:42;27.80;;;14.05;;
37715;SDS011;23562;50.540;12.504;2023-01-30T04:31:08;25.40;;;14.38;;
37715;SDS011;23562;50.540;12.504;2023-01-30T04:33:33;28.27;;;14.88;;
37715;SDS011;23562;50.540;12.504;2023-01-30T04:36:04;29.52;;;14.55;;
37715;SDS011;23562;50.540;12.504;2023-01-30T04:38:30;26.58;;;13.45;;
37715;SDS011;23562;50.540;12.504;2023-01-30T04:40:56;27.15;;;13.13;;
37715;SDS011;23562;50.540;12.504;2023-01-30T04:43:22;27.85;;;14.05;;
37715;SDS011;23562;50.540;12.504;2023-01-30T04:45:48;26.85;;;13.55;;
37715;SDS011;23562;50.540;12.504;2023-01-30T04:48:14;27.27;;;13.80;;
37715;SDS011;23562;50.540;12.504;2023-01-30T04:50:39;23.40;;;12.80;;
37715;SDS011;23562;50.540;12.504;2023-01-30T04:53:05;24.52;;;12.48;;
37715;SDS011;23562;50.540;12.504;2023-01-30T04:55:30;24.30;;;12.40;;
37715;SDS011;23562;50.540;12.504;2023-01-30T04:57:56;25.25;;;12.30;;
37715;SDS011;23562;50.540;12.504;2023-01-30T05:00:21;25.23;;;12.50;;
37715;SDS011;23562;50.540;12.504;2023-01-30T05:02:46;22.75;;;11.63;;
37715;SDS011;23562;50.540;12.504;2023-01-30T05:05:11;22.48;;;12.13;;
37715;SDS011;23562;50.540;12.504;2023-01-30T05:07:36;21.65;;;10.48;;
37715;SDS011;23562;50.540;12.504;2023-01-30T05:10:01;22.63;;;11.40;;
37715;SDS011;23562;50.540;12.504;2023-01-30T05:12:27;23.00;;;10.93;;
37715;SDS011;23562;50.540;12.504;2023-01-30T05:14:52;20.75;;;11.63;;
37715;SDS011;23562;50.540;12.504;2023-01-30T05:17:17;16.80;;;10.10;;
37715;SDS011;23562;50.540;12.504;2023-01-30T05:19:42;23.38;;;11.77;;
37715;SDS011;23562;50.540;12.504;2023-01-30T05:22:07;23.20;;;12.77;;
37715;SDS011;23562;50.540;12.504;2023-01-30T05:24:32;21.60;;;11.02;;
37715;SDS011;23562;50.540;12.504;2023-01-30T05:26:57;25.85;;;13.48;;
37715;SDS011;23562;50.540;12.504;2023-01-30T05:29:23;25.52;;;13.15;;
37715;SDS011;23562;50.540;12.504;2023-01-30T05:31:48;25.50;;;13.37;;
37715;SDS011;23562;50.540;12.504;2023-01-30T05:34:13;21.98;;;12.25;;
37715;SDS011;23562;50.540;12.504;2023-01-30T05:36:38;25.63;;;12.73;;
37715;SDS011;23562;50.540;12.504;2023-01-30T05:39:03;25.90;;;12.80;;
37715;SDS011;23562;50.540;12.504;2023-01-30T05:41:28;48.37;;;19.60;;
37715;SDS011;23562;50.540;12.504;2023-01-30T05:43:53;27.80;;;13.43;;
37715;SDS011;23562;50.540;12.504;2023-01-30T05:46:19;33.90;;;16.23;;
37715;SDS011;23562;50.540;12.504;2023-01-30T05:48:44;24.00;;;12.68;;
37715;SDS011;23562;50.540;12.504;2023-01-30T05:51:13;24.73;;;12.82;;
37715;SDS011;23562;50.540;12.504;2023-01-30T05:53:39;29.88;;;14.20;;
37715;SDS011;23562;50.540;12.504;2023-01-30T05:56:04;30.60;;;14.30;;
37715;SDS011;23562;50.540;12.504;2023-01-30T05:58:30;24.05;;;11.88;;
37715;SDS011;23562;50.540;12.504;2023-01-30T06:01:13;24.40;;;12.85;;
37715;SDS011;23562;50.540;12.504;2023-01-30T06:03:38;23.92;;;13.02;;
37715;SDS011;23562;50.540;12.504;2023-01-30T06:06:04;31.08;;;14.45;;
37715;SDS011;23562;50.540;12.504;2023-01-30T06:08:29;27.35;;;13.20;;
37715;SDS011;23562;50.540;12.504;2023-01-30T06:10:59;31.85;;;14.23;;
37715;SDS011;23562;50.540;12.504;2023-01-30T06:13:24;28.13;;;13.02;;
37715;SDS011;23562;50.540;12.504;2023-01-30T06:15:51;26.65;;;13.48;;
37715;SDS011;23562;50.540;12.504;2023-01-30T06:18:16;25.58;;;13.02;;
37715;SDS011;23562;50.540;12.504;2023-01-30T06:20:45;31.50;;;14.98;;
37715;SDS011;23562;50.540;12.504;2023-01-30T06:23:10;25.35;;;12.50;;
37715;SDS011;23562;50.540;12.504;2023-01-30T06:25:35;22.77;;;13.03;;
37715;SDS011;23562;50.540;12.504;2023-01-30T06:28:00;24.17;;;12.73;;
37715;SDS011;23562;50.540;12.504;2023-01-30T06:30:25;23.58;;;12.00;;
37715;SDS011;23562;50.540;12.504;2023-01-30T06:32:51;23.70;;;12.43;;
37715;SDS011;23562;50.540;12.504;2023-01-30T06:35:16;19.30;;;10.77;;
37715;SDS011;23562;50.540;12.504;2023-01-30T06:37:42;27.73;;;12.23;;
37715;SDS011;23562;50.540;12.504;2023-01-30T06:40:08;36.08;;;15.93;;
37715;SDS011;23562;50.540;12.504;2023-01-30T06:42:33;20.05;;;10.40;;
37715;SDS011;23562;50.540;12.504;2023-01-30T06:44:58;23.20;;;12.13;;
37715;SDS011;23562;50.540;12.504;2023-01-30T06:47:23;21.88;;;11.27;;
37715;SDS011;23562;50.540;12.504;2023-01-30T06:49:48;29.37;;;13.93;;
37715;SDS011;23562;50.540;12.504;2023-01-30T06:52:14;21.70;;;11.03;;
37715;SDS011;23562;50.540;12.504;2023-01-30T06:54:39;23.35;;;11.27;;
37715;SDS011;23562;50.540;12.504;2023-01-30T06:57:04;22.35;;;12.35;;
37715;SDS011;23562;50.540;12.504;2023-01-30T06:59:29;26.87;;;13.23;;
37715;SDS011;23562;50.540;12.504;2023-01-30T07:01:54;24.63;;;11.55;;
37715;SDS011;23562;50.540;12.504;2023-01-30T07:04:19;19.13;;;10.82;;
37715;SDS011;23562;50.540;12.504;2023-01-30T07:06:44;21.20;;;10.80;;
37715;SDS011;23562;50.540;12.504;2023-01-30T07:09:10;20.30;;;10.90;;
37715;SDS011;23562;50.540;12.504;2023-01-30T07:11:35;23.00;;;11.82;;
37715;SDS011;23562;50.540;12.504;2023-01-30T07:14:00;21.23;;;11.35;;
37715;SDS011;23562;50.540;12.504;2023-01-30T07:16:26;18.38;;;10.32;;
37715;SDS011;23562;50.540;12.504;2023-01-30T07:18:54;18.75;;;10.98;;
37715;SDS011;23562;50.540;12.504;2023-01-30T07:21:21;18.40;;;9.70;;
37715;SDS011;23562;50.540;12.504;2023-01-30T07:23:46;18.73;;;10.13;;
37715;SDS011;23562;50.540;12.504;2023-01-30T07:26:11;16.43;;;10.17;;
37715;SDS011;23562;50.540;12.504;2023-01-30T07:28:36;19.35;;;10.18;;
37715;SDS011;23562;50.540;12.504;2023-01-30T07:31:01;17.60;;;9.85;;
37715;SDS011;23562;50.540;12.504;2023-01-30T07:33:27;18.42;;;9.88;;
37715;SDS011;23562;50.540;12.504;2023-01-30T07:35:52;18.50;;;10.63;;
37715;SDS011;23562;50.540;12.504;2023-01-30T07:38:17;18.75;;;9.70;;
37715;SDS011;23562;50.540;12.504;2023-01-30T07:40:42;17.90;;;9.70;;
37715;SDS011;23562;50.540;12.504;2023-01-30T07:43:10;20.10;;;11.10;;
37715;SDS011;23562;50.540;12.504;2023-01-30T07:45:37;18.27;;;9.68;;
37715;SDS011;23562;50.540;12.504;2023-01-30T07:48:02;19.30;;;10.43;;
37715;SDS011;23562;50.540;12.504;2023-01-30T07:50:28;17.05;;;9.25;;
37715;SDS011;23562;50.540;12.504;2023-01-30T07:52:53;17.60;;;8.70;;
37715;SDS011;23562;50.540;12.504;2023-01-30T07:55:18;14.38;;;8.68;;
37715;SDS011;23562;50.540;12.504;2023-01-30T07:57:43;15.30;;;8.53;;
37715;SDS011;23562;50.540;12.504;2023-01-30T08:00:08;17.23;;;9.27;;
37715;SDS011;23562;50.540;12.504;2023-01-30T08:02:34;15.63;;;9.07;;
37715;SDS011;23562;50.540;12.504;2023-01-30T08:05:00;16.27;;;8.45;;
37715;SDS011;23562;50.540;12.504;2023-01-30T08:07:25;15.07;;;8.47;;
37715;SDS011;23562;50.540;12.504;2023-01-30T08:09:51;15.35;;;8.57;;
37715;SDS011;23562;50.540;12.504;2023-01-30T08:12:16;16.40;;;8.85;;
37715;SDS011;23562;50.540;12.504;2023-01-30T08:14:41;14.98;;;8.43;;
37715;SDS011;23562;50.540;12.504;2023-01-30T08:17:06;14.50;;;8.30;;
37715;SDS011;23562;50.540;12.504;2023-01-30T08:19:31;14.05;;;7.70;;
37715;SDS011;23562;50.540;12.504;2023-01-30T08:21:57;13.57;;;8.50;;
37715;SDS011;23562;50.540;12.504;2023-01-30T08:24:22;13.88;;;7.63;;
37715;SDS011;23562;50.540;12.504;2023-01-30T08:26:47;14.93;;;8.10;;
37715;SDS011;23562;50.540;12.504;2023-01-30T08:29:13;13.45;;;8.02;;
37715;SDS011;23562;50.540;12.504;2023-01-30T08:31:38;15.18;;;7.65;;
37715;SDS011;23562;50.540;12.504;2023-01-30T08:34:03;15.90;;;7.75;;
37715;SDS011;23562;50.540;12.504;2023-01-30T08:36:28;16.60;;;8.20;;
37715;SDS011;23562;50.540;12.504;2023-01-30T08:38:54;14.27;;;7.35;;
37715;SDS011;23562;50.540;12.504;2023-01-30T08:41:19;15.57;;;9.27;;
37715;SDS011;23562;50.540;12.504;2023-01-30T08:43:44;14.63;;;8.02;;
37715;SDS011;23562;50.540;12.504;2023-01-30T08:46:09;15.10;;;8.50;;
37715;SDS011;23562;50.540;12.504;2023-01-30T08:48:34;15.45;;;8.38;;
37715;SDS011;23562;50.540;12.504;2023-01-30T08:51:01;13.40;;;7.57;;
37715;SDS011;23562;50.540;12.504;2023-01-30T08:53:26;14.60;;;8.25;;
37715;SDS011;23562;50.540;12.504;2023-01-30T08:55:52;13.55;;;7.70;;
37715;SDS011;23562;50.540;12.504;2023-01-30T08:58:18;14.32;;;7.75;;
37715;SDS011;23562;50.540;12.504;2023-01-30T09:00:43;12.13;;;7.30;;
37715;SDS011;23562;50.540;12.504;2023-01-30T09:03:09;12.48;;;7.70;;
37715;SDS011;23562;50.540;12.504;2023-01-30T09:05:34;15.55;;;7.72;;
37715;SDS011;23562;50.540;12.504;2023-01-30T09:07:59;14.03;;;7.93;;
37715;SDS011;23562;50.540;12.504;2023-01-30T09:10:24;13.50;;;7.47;;
37715;SDS011;23562;50.540;12.504;2023-01-30T09:12:49;11.63;;;7.18;;
37715;SDS011;23562;50.540;12.504;2023-01-30T09:15:14;13.50;;;7.60;;
37715;SDS011;23562;50.540;12.504;2023-01-30T09:17:40;13.32;;;7.70;;
37715;SDS011;23562;50.540;12.504;2023-01-30T09:20:05;15.67;;;7.37;;
37715;SDS011;23562;50.540;12.504;2023-01-30T09:22:31;16.42;;;7.90;;
37715;SDS011;23562;50.540;12.504;2023-01-30T09:24:56;10.50;;;6.18;;
37715;SDS011;23562;50.540;12.504;2023-01-30T09:27:22;9.98;;;6.10;;
37715;SDS011;23562;50.540;12.504;2023-01-30T09:29:48;16.13;;;9.02;;
37715;SDS011;23562;50.540;12.504;2023-01-30T09:32:13;11.80;;;7.03;;
37715;SDS011;23562;50.540;12.504;2023-01-30T09:34:38;13.32;;;7.63;;
37715;SDS011;23562;50.540;12.504;2023-01-30T09:37:03;12.52;;;6.72;;
37715;SDS011;23562;50.540;12.504;2023-01-30T09:39:28;14.43;;;7.30;;
37715;SDS011;23562;50.540;12.504;2023-01-30T09:49:36;12.38;;;6.57;;
37715;SDS011;23562;50.540;12.504;2023-01-30T09:52:25;12.52;;;6.35;;
37715;SDS011;23562;50.540;12.504;2023-01-30T09:54:51;11.70;;;6.75;;
37715;SDS011;23562;50.540;12.504;2023-01-30T09:57:19;12.77;;;7.03;;
37715;SDS011;23562;50.540;12.504;2023-01-30T10:02:30;9.48;;;5.55;;
37715;SDS011;23562;50.540;12.504;2023-01-30T10:04:57;13.73;;;6.57;;
37715;SDS011;23562;50.540;12.504;2023-01-30T10:07:27;11.82;;;6.47;;
37715;SDS011;23562;50.540;12.504;2023-01-30T10:09:55;9.63;;;5.38;;
37715;SDS011;23562;50.540;12.504;2023-01-30T10:12:28;10.50;;;6.18;;
37715;SDS011;23562;50.540;12.504;2023-01-30T10:22:57;10.75;;;6.28;;
37715;SDS011;23562;50.540;12.504;2023-01-30T10:25:28;21.92;;;10.65;;
37715;SDS011;23562;50.540;12.504;2023-01-30T10:27:57;40.35;;;13.82;;
37715;SDS011;23562;50.540;12.504;2023-01-30T10:30:24;16.00;;;7.50;;
37715;SDS011;23562;50.540;12.504;2023-01-30T10:35:16;43.00;;;13.73;;
37715;SDS011;23562;50.540;12.504;2023-01-30T10:37:57;12.18;;;6.85;;
37715;SDS011;23562;50.540;12.504;2023-01-30T10:45:37;12.68;;;7.63;;
37715;SDS011;23562;50.540;12.504;2023-01-30T10:48:11;11.00;;;6.45;;
37715;SDS011;23562;50.540;12.504;2023-01-30T10:55:46;28.27;;;6.85;;
37715;SDS011;23562;50.540;12.504;2023-01-30T10:58:32;12.23;;;6.72;;
37715;SDS011;23562;50.540;12.504;2023-01-30T11:01:05;9.80;;;5.63;;
37715;SDS011;23562;50.540;12.504;2023-01-30T11:03:40;8.75;;;5.25;;
37715;SDS011;23562;50.540;12.504;2023-01-30T11:06:13;9.95;;;5.20;;
37715;SDS011;23562;50.540;12.504;2023-01-30T11:08:40;9.88;;;5.55;;
37715;SDS011;23562;50.540;12.504;2023-01-30T11:11:19;11.18;;;6.22;;
37715;SDS011;23562;50.540;12.504;2023-01-30T11:13:46;10.63;;;6.72;;
37715;SDS011;23562;50.540;12.504;2023-01-30T11:16:11;10.48;;;6.32;;
37715;SDS011;23562;50.540;12.504;2023-01-30T11:18:46;9.95;;;6.18;;
37715;SDS011;23562;50.540;12.504;2023-01-30T11:21:14;10.85;;;6.32;;
37715;SDS011;23562;50.540;12.504;2023-01-30T11:23:42;31.23;;;9.60;;
37715;SDS011;23562;50.540;12.504;2023-01-30T11:26:11;11.65;;;6.03;;
37715;SDS011;23562;50.540;12.504;2023-01-30T11:28:41;10.27;;;5.75;;
37715;SDS011;23562;50.540;12.504;2023-01-30T11:31:15;9.68;;;5.80;;
37715;SDS011;23562;50.540;12.504;2023-01-30T11:33:40;10.02;;;5.65;;
37715;SDS011;23562;50.540;12.504;2023-01-30T11:36:08;18.77;;;10.97;;
37715;SDS011;23562;50.540;12.504;2023-01-30T11:38:53;23.10;;;12.32;;
37715;SDS011;23562;50.540;12.504;2023-01-30T11:41:20;16.30;;;9.25;;
37715;SDS011;23562;50.540;12.504;2023-01-30T11:43:45;36.47;;;19.17;;
37715;SDS011;23562;50.540;12.504;2023-01-30T11:46:13;48.70;;;21.40;;
37715;SDS011;23562;50.540;12.504;2023-01-30T11:48:58;54.92;;;24.17;;
37715;SDS011;23562;50.540;12.504;2023-01-30T11:51:25;53.92;;;19.45;;
37715;SDS011;23562;50.540;12.504;2023-01-30T11:53:59;59.78;;;23.48;;
37715;SDS011;23562;50.540;12.504;2023-01-30T11:56:33;15.23;;;8.48;;
37715;SDS011;23562;50.540;12.504;2023-01-30T11:58:59;37.45;;;14.48;;
37715;SDS011;23562;50.540;12.504;2023-01-30T12:01:26;50.35;;;16.48;;
37715;SDS011;23562;50.540;12.504;2023-01-30T12:03:52;49.95;;;17.55;;
37715;SDS011;23562;50.540;12.504;2023-01-30T12:06:29;36.83;;;13.65;;
37715;SDS011;23562;50.540;12.504;2023-01-30T12:08:55;38.88;;;13.77;;
37715;SDS011;23562;50.540;12.504;2023-01-30T12:11:24;23.23;;;9.73;;
37715;SDS011;23562;50.540;12.504;2023-01-30T12:13:49;34.20;;;11.90;;
37715;SDS011;23562;50.540;12.504;2023-01-30T12:19:13;74.50;;;21.02;;
37715;SDS011;23562;50.540;12.504;2023-01-30T12:21:59;28.98;;;14.90;;
37715;SDS011;23562;50.540;12.504;2023-01-30T12:24:37;45.50;;;21.10;;
37715;SDS011;23562;50.540;12.504;2023-01-30T12:27:03;19.45;;;10.48;;
37715;SDS011;23562;50.540;12.504;2023-01-30T12:29:33;20.15;;;12.18;;
37715;SDS011;23562;50.540;12.504;2023-01-30T12:32:15;15.00;;;8.93;;
37715;SDS011;23562;50.540;12.504;2023-01-30T12:34:41;51.75;;;25.90;;
37715;SDS011;23562;50.540;12.504;2023-01-30T12:40:08;15.50;;;11.15;;
37715;SDS011;23562;50.540;12.504;2023-01-30T12:45:24;14.60;;;8.90;;
37715;SDS011;23562;50.540;12.504;2023-01-30T12:48:03;12.65;;;7.30;;
37715;SDS011;23562;50.540;12.504;2023-01-30T12:53:23;14.98;;;9.30;;
37715;SDS011;23562;50.540;12.504;2023-01-30T12:58:26;26.92;;;14.68;;
37715;SDS011;23562;50.540;12.504;2023-01-30T13:01:01;13.18;;;8.50;;
37715;SDS011;23562;50.540;12.504;2023-01-30T13:03:40;25.83;;;14.48;;
37715;SDS011;23562;50.540;12.504;2023-01-30T13:06:10;15.13;;;8.52;;
37715;SDS011;23562;50.540;12.504;2023-01-30T13:08:57;30.80;;;17.23;;
37715;SDS011;23562;50.540;12.504;2023-01-30T13:14:39;11.68;;;7.75;;
37715;SDS011;23562;50.540;12.504;2023-01-30T13:16:50;13.73;;;8.55;;
37715;SDS011;23562;50.540;12.504;2023-01-30T13:19:42;11.27;;;7.53;;
37715;SDS011;23562;50.540;12.504;2023-01-30T13:22:39;13.13;;;7.68;;
37715;SDS011;23562;50.540;12.504;2023-01-30T13:25:09;12.25;;;7.35;;
37715;SDS011;23562;50.540;12.504;2023-01-30T13:27:39;14.27;;;8.05;;
37715;SDS011;23562;50.540;12.504;2023-01-30T13:30:12;10.32;;;6.75;;
37715;SDS011;23562;50.540;12.504;2023-01-30T13:32:39;10.88;;;6.97;;
37715;SDS011;23562;50.540;12.504;2023-01-30T13:35:15;9.82;;;5.82;;
37715;SDS011;23562;50.540;12.504;2023-01-30T13:37:41;9.90;;;7.20;;
37715;SDS011;23562;50.540;12.504;2023-01-30T13:40:18;12.50;;;6.55;;
37715;SDS011;23562;50.540;12.504;2023-01-30T13:42:46;10.18;;;7.57;;
37715;SDS011;23562;50.540;12.504;2023-01-30T13:45:17;11.02;;;7.75;;
37715;SDS011;23562;50.540;12.504;2023-01-30T13:47:47;10.55;;;6.38;;
37715;SDS011;23562;50.540;12.504;2023-01-30T13:50:19;12.85;;;7.07;;
37715;SDS011;23562;50.540;12.504;2023-01-30T13:58:14;8.82;;;5.80;;
37715;SDS011;23562;50.540;12.504;2023-01-30T14:00:52;12.10;;;5.90;;
37715;SDS011;23562;50.540;12.504;2023-01-30T14:03:22;9.55;;;5.85;;
37715;SDS011;23562;50.540;12.504;2023-01-30T14:08:17;11.65;;;6.65;;
37715;SDS011;23562;50.540;12.504;2023-01-30T14:10:43;11.48;;;6.15;;
37715;SDS011;23562;50.540;12.504;2023-01-30T14:13:11;8.93;;;5.68;;
37715;SDS011;23562;50.540;12.504;2023-01-30T14:15:37;42.40;;;16.80;;
37715;SDS011;23562;50.540;12.504;2023-01-30T14:18:18;29.17;;;14.90;;
37715;SDS011;23562;50.540;12.504;2023-01-30T14:20:45;21.05;;;11.82;;
37715;SDS011;23562;50.540;12.504;2023-01-30T14:23:25;37.15;;;16.75;;
37715;SDS011;23562;50.540;12.504;2023-01-30T14:25:53;20.60;;;10.32;;
37715;SDS011;23562;50.540;12.504;2023-01-30T14:36:28;47.03;;;17.77;;
37715;SDS011;23562;50.540;12.504;2023-01-30T14:38:31;19.33;;;10.82;;
37715;SDS011;23562;50.540;12.504;2023-01-30T14:43:35;20.83;;;11.75;;
37715;SDS011;23562;50.540;12.504;2023-01-30T14:51:26;30.73;;;14.47;;
37715;SDS011;23562;50.540;12.504;2023-01-30T14:56:17;16.88;;;9.40;;
37715;SDS011;23562;50.540;12.504;2023-01-30T14:58:54;18.00;;;9.40;;
37715;SDS011;23562;50.540;12.504;2023-01-30T15:01:21;13.40;;;7.97;;
37715;SDS011;23562;50.540;12.504;2023-01-30T15:03:47;12.90;;;7.80;;
37715;SDS011;23562;50.540;12.504;2023-01-30T15:06:12;17.05;;;8.80;;
37715;SDS011;23562;50.540;12.504;2023-01-30T15:08:39;17.77;;;9.27;;
37715;SDS011;23562;50.540;12.504;2023-01-30T15:11:22;21.95;;;9.60;;
37715;SDS011;23562;50.540;12.504;2023-01-30T15:16:25;18.80;;;8.15;;
37715;SDS011;23562;50.540;12.504;2023-01-30T15:21:40;15.93;;;7.82;;
37715;SDS011;23562;50.540;12.504;2023-01-30T15:24:30;14.35;;;7.22;;
37715;SDS011;23562;50.540;12.504;2023-01-30T15:32:45;14.57;;;6.30;;
37715;SDS011;23562;50.540;12.504;2023-01-30T15:37:47;8.10;;;5.63;;
37715;SDS011;23562;50.540;12.504;2023-01-30T15:40:17;38.00;;;16.95;;
37715;SDS011;23562;50.540;12.504;2023-01-30T15:48:19;10.20;;;5.40;;
37715;SDS011;23562;50.540;12.504;2023-01-30T15:50:45;14.43;;;8.57;;
37715;SDS011;23562;50.540;12.504;2023-01-30T15:53:11;10.57;;;6.65;;
37715;SDS011;23562;50.540;12.504;2023-01-30T15:55:37;14.38;;;6.53;;
37715;SDS011;23562;50.540;12.504;2023-01-30T15:58:03;12.15;;;9.20;;
37715;SDS011;23562;50.540;12.504;2023-01-30T16:00:30;13.52;;;5.78;;
37715;SDS011;23562;50.540;12.504;2023-01-30T16:02:56;15.40;;;6.10;;
37715;SDS011;23562;50.540;12.504;2023-01-30T16:05:23;15.93;;;5.53;;